createdAt,value
2024-03-14T00:01:41.164Z,25
2024-03-14T00:03:41.211Z,18
2024-03-14T00:05:41.310Z,15
2024-03-14T00:07:41.370Z,16
2024-03-14T00:13:41.677Z,15
2024-03-14T00:17:41.886Z,14
2024-03-14T00:19:41.936Z,14
2024-03-14T00:21:42.016Z,14
2024-03-14T00:23:42.122Z,15
2024-03-14T00:25:42.230Z,16
2024-03-14T00:27:42.340Z,16
2024-03-14T00:29:42.424Z,15
2024-03-14T00:31:42.604Z,16
2024-03-14T00:33:42.789Z,15
2024-03-14T00:35:42.692Z,15
2024-03-14T00:37:42.792Z,17
2024-03-14T00:39:42.892Z,16
2024-03-14T00:41:42.969Z,16
2024-03-14T00:43:43.099Z,17
2024-03-14T00:45:43.219Z,19
2024-03-14T00:47:43.376Z,25
2024-03-14T00:49:43.426Z,20
2024-03-14T00:51:43.490Z,17
2024-03-14T00:53:43.640Z,19
2024-03-14T00:55:43.675Z,18
2024-03-14T00:57:43.846Z,17
2024-03-14T00:59:44.018Z,18
2024-03-14T01:01:43.978Z,17
2024-03-14T01:03:44.058Z,20
2024-03-14T01:05:44.210Z,22
2024-03-14T01:07:44.224Z,25
2024-03-14T01:09:44.316Z,19
2024-03-14T01:11:44.428Z,19
2024-03-14T01:13:44.471Z,17
2024-03-14T01:15:44.603Z,18
2024-03-14T01:17:44.754Z,17
2024-03-14T01:19:44.769Z,16
2024-03-14T01:21:44.929Z,21
2024-03-14T01:23:44.993Z,24
2024-03-14T01:25:45.056Z,19
2024-03-14T01:27:45.149Z,18
2024-03-14T01:29:45.267Z,17
2024-03-14T01:31:45.336Z,16
2024-03-14T01:35:45.575Z,16
2024-03-14T01:37:45.585Z,16
2024-03-14T01:39:45.699Z,15
2024-03-14T01:41:45.815Z,16
2024-03-14T01:43:45.887Z,20
2024-03-14T01:45:46.048Z,15
2024-03-14T01:47:46.172Z,14
2024-03-14T01:49:46.122Z,17
2024-03-14T01:51:46.499Z,24
2024-03-14T01:53:46.385Z,21
2024-03-14T01:55:46.442Z,18
2024-03-14T01:57:46.548Z,19
2024-03-14T01:59:46.599Z,20
2024-03-14T02:01:46.710Z,20
2024-03-14T02:03:46.939Z,16
2024-03-14T02:05:46.924Z,14
2024-03-14T02:07:46.978Z,15
2024-03-14T02:09:47.064Z,14
2024-03-14T02:11:47.153Z,14
2024-03-14T02:13:47.202Z,15
2024-03-14T02:17:47.465Z,14
2024-03-14T02:19:47.461Z,14
2024-03-14T02:21:47.558Z,14
2024-03-14T02:23:47.699Z,14
2024-03-14T02:25:47.740Z,14
2024-03-14T02:32:18.078Z,14
2024-03-14T02:34:18.220Z,14
2024-03-14T02:36:18.364Z,13
2024-03-14T02:38:18.463Z,15
2024-03-14T02:40:18.560Z,14
2024-03-14T02:42:18.773Z,15
2024-03-14T02:44:18.834Z,14
2024-03-14T02:46:18.916Z,13
2024-03-14T02:48:19.086Z,14
2024-03-14T02:50:20.228Z,14
2024-03-14T02:54:19.374Z,14
2024-03-14T02:56:19.467Z,14
2024-03-14T02:58:19.605Z,14
2024-03-14T03:00:19.772Z,14
2024-03-14T03:02:19.786Z,15
2024-03-14T03:04:19.913Z,14
2024-03-14T03:06:20.120Z,14
2024-03-14T03:08:20.141Z,15
2024-03-14T03:10:20.319Z,15
2024-03-14T03:12:20.538Z,15
2024-03-14T03:14:20.510Z,14
2024-03-14T03:16:20.618Z,14
2024-03-14T03:18:20.789Z,15
2024-03-14T03:20:20.850Z,14
2024-03-14T03:22:20.957Z,14
2024-03-14T03:24:21.074Z,14
2024-03-14T03:28:21.311Z,14
2024-03-14T03:32:21.516Z,13
2024-03-14T03:34:21.641Z,14
2024-03-14T03:36:21.771Z,14
2024-03-14T03:38:21.838Z,14
2024-03-14T03:40:21.955Z,13
2024-03-14T03:42:22.128Z,14
2024-03-14T03:44:22.192Z,14
2024-03-14T03:46:22.299Z,14
2024-03-14T03:48:22.513Z,17
2024-03-14T03:50:22.565Z,14
2024-03-14T03:52:22.643Z,16
2024-03-14T03:54:22.763Z,14
2024-03-14T03:56:22.842Z,14
2024-03-14T03:58:22.943Z,14
2024-03-14T04:00:23.094Z,14
2024-03-14T04:02:23.170Z,16
2024-03-14T04:04:23.286Z,14
2024-03-14T04:06:23.482Z,14
2024-03-14T04:08:23.525Z,14
2024-03-14T04:10:23.652Z,14
2024-03-14T04:12:23.792Z,14
2024-03-14T04:14:23.841Z,15
2024-03-14T04:16:24.083Z,15
2024-03-14T04:18:24.134Z,16
2024-03-14T04:20:24.190Z,14
2024-03-14T04:22:24.292Z,15
2024-03-14T04:24:24.417Z,15
2024-03-14T04:26:24.495Z,15
2024-03-14T04:28:24.680Z,14
2024-03-14T04:30:25.253Z,15
2024-03-14T04:32:24.830Z,14
2024-03-14T04:34:24.943Z,14
2024-03-14T04:36:25.058Z,15
2024-03-14T04:38:25.121Z,16
2024-03-14T04:40:25.260Z,17
2024-03-14T04:42:25.394Z,36
2024-03-14T04:44:25.454Z,43
2024-03-14T04:46:25.607Z,45
2024-03-14T04:48:25.719Z,40
2024-03-14T04:50:25.747Z,44
2024-03-14T04:52:25.862Z,45
2024-03-14T04:54:26.055Z,62
2024-03-14T04:56:26.056Z,54
2024-03-14T04:58:26.316Z,38
2024-03-14T05:00:26.359Z,40
2024-03-14T05:02:26.406Z,40
2024-03-14T05:04:26.507Z,31
2024-03-14T05:06:26.692Z,25
2024-03-14T05:08:26.695Z,22
2024-03-14T05:10:26.866Z,20
2024-03-14T05:12:26.925Z,16
2024-03-14T05:14:26.998Z,17
2024-03-14T05:16:27.092Z,18
2024-03-14T05:20:27.272Z,17
2024-03-14T05:22:27.456Z,18
2024-03-14T05:24:27.552Z,17
2024-03-14T05:26:27.589Z,24
2024-03-14T05:28:27.706Z,26
2024-03-14T05:30:27.810Z,26
2024-03-14T05:32:27.938Z,19
2024-03-14T05:34:27.993Z,25
2024-03-14T05:36:28.180Z,24
2024-03-14T05:38:28.225Z,27
2024-03-14T05:40:28.302Z,22
2024-03-14T05:42:28.405Z,19
2024-03-14T05:44:28.516Z,21
2024-03-14T05:46:28.584Z,20
2024-03-14T05:48:28.761Z,18
2024-03-14T05:50:28.781Z,17
2024-03-14T05:52:28.890Z,17
2024-03-14T05:54:29.071Z,20
2024-03-14T05:56:29.097Z,19
2024-03-14T05:58:29.186Z,16
2024-03-14T06:00:29.345Z,20
2024-03-14T06:02:29.417Z,20
2024-03-14T06:04:29.545Z,19
2024-03-14T06:06:29.677Z,20
2024-03-14T06:08:29.697Z,19
2024-03-14T06:10:29.841Z,21
2024-03-14T06:12:30.112Z,23
2024-03-14T06:14:29.999Z,21
2024-03-14T06:16:30.070Z,21
2024-03-14T06:18:30.242Z,21
2024-03-14T06:22:30.378Z,23
2024-03-14T06:24:30.624Z,22
2024-03-14T06:26:30.585Z,23
2024-03-14T06:28:30.690Z,22
2024-03-14T06:30:30.819Z,20
2024-03-14T06:32:30.911Z,21
2024-03-14T06:34:30.975Z,20
2024-03-14T06:36:31.121Z,22
2024-03-14T06:38:31.195Z,21
2024-03-14T06:40:31.272Z,23
2024-03-14T06:42:31.562Z,22
2024-03-14T06:44:31.489Z,19
2024-03-14T06:46:31.573Z,21
2024-03-14T06:48:31.745Z,21
2024-03-14T06:50:31.771Z,24
2024-03-14T06:52:31.891Z,22
2024-03-14T06:54:31.996Z,21
2024-03-14T06:56:32.069Z,22
2024-03-14T06:58:32.170Z,21
2024-03-14T07:00:32.322Z,20
2024-03-14T07:02:32.367Z,14
2024-03-14T07:04:32.465Z,13
2024-03-14T07:06:32.640Z,12
2024-03-14T07:08:32.665Z,10
2024-03-14T07:10:32.752Z,6
2024-03-14T07:12:32.884Z,5
2024-03-14T07:16:33.042Z,7
2024-03-14T07:18:33.322Z,6
2024-03-14T07:20:33.263Z,5
2024-03-14T07:22:33.381Z,6
2024-03-14T07:24:33.547Z,8
2024-03-14T07:26:33.559Z,7
2024-03-14T07:28:33.642Z,5
2024-03-14T07:30:33.792Z,5
2024-03-14T07:32:33.850Z,6
2024-03-14T07:34:33.925Z,7
2024-03-14T07:36:34.096Z,7
2024-03-14T07:38:34.129Z,14
2024-03-14T07:40:35.030Z,12
2024-03-14T07:42:34.396Z,12
2024-03-14T07:44:34.453Z,13
2024-03-14T07:46:34.572Z,25
2024-03-14T07:48:34.708Z,24
2024-03-14T07:50:34.672Z,22
2024-03-14T07:52:34.779Z,14
2024-03-14T07:54:35.019Z,12
2024-03-14T07:56:34.961Z,15
2024-03-14T07:58:35.038Z,14
2024-03-14T08:00:35.263Z,13
2024-03-14T08:02:35.242Z,17
2024-03-14T08:04:35.329Z,20
2024-03-14T08:06:35.578Z,22
2024-03-14T08:08:35.499Z,19
2024-03-14T08:10:35.739Z,17
2024-03-14T08:12:35.904Z,13
2024-03-14T08:14:35.775Z,15
2024-03-14T08:16:35.876Z,12
2024-03-14T08:18:36.075Z,16
2024-03-14T08:20:36.066Z,16
2024-03-14T08:22:36.127Z,11
2024-03-14T08:24:36.216Z,9
2024-03-14T08:26:36.308Z,8
2024-03-14T08:28:36.397Z,8
2024-03-14T08:30:36.512Z,8
2024-03-14T08:32:36.593Z,7
2024-03-14T08:34:36.709Z,8
2024-03-14T08:36:36.890Z,11
2024-03-14T08:38:36.912Z,15
2024-03-14T08:40:36.907Z,14
2024-03-14T08:42:43.373Z,16
2024-03-14T08:44:37.088Z,12
2024-03-14T08:46:37.317Z,10
2024-03-14T08:48:37.515Z,7
2024-03-14T08:50:37.378Z,12
2024-03-14T08:52:37.453Z,12
2024-03-14T08:54:37.678Z,8
2024-03-14T08:56:37.591Z,8
2024-03-14T08:58:37.703Z,6
2024-03-14T09:03:08.121Z,8
2024-03-14T09:05:08.020Z,7
2024-03-14T09:07:08.153Z,11
2024-03-14T09:09:08.406Z,10
2024-03-14T09:11:08.489Z,10
2024-03-14T09:13:08.510Z,8
2024-03-14T09:17:08.800Z,8
2024-03-14T09:19:08.911Z,9
2024-03-14T09:21:09.020Z,11
2024-03-14T09:23:09.066Z,9
2024-03-14T09:25:09.201Z,10
2024-03-14T09:27:09.312Z,10
2024-03-14T09:29:09.386Z,11
2024-03-14T09:31:09.500Z,11
2024-03-14T09:33:09.847Z,13
2024-03-14T09:35:09.720Z,13
2024-03-14T09:39:09.980Z,11
2024-03-14T09:41:18.030Z,13
2024-03-14T09:43:10.196Z,14
2024-03-14T09:45:10.331Z,18
2024-03-14T09:47:10.451Z,15
2024-03-14T09:49:10.506Z,14
2024-03-14T09:51:10.671Z,15
2024-03-14T09:53:10.677Z,13
2024-03-14T09:55:10.787Z,13
2024-03-14T09:57:10.973Z,40
2024-03-14T09:59:11.031Z,75
2024-03-14T10:01:11.555Z,53
2024-03-14T10:03:11.326Z,29
2024-03-14T10:05:11.380Z,26
2024-03-14T10:07:11.503Z,23
2024-03-14T10:09:17.451Z,20
2024-03-14T10:11:11.699Z,17
2024-03-14T10:13:12.018Z,12
2024-03-14T10:15:11.968Z,10
2024-03-14T10:17:12.293Z,19
2024-03-14T10:19:12.174Z,28
2024-03-14T10:21:12.465Z,33
2024-03-14T10:23:12.352Z,51
2024-03-14T10:25:12.476Z,32
2024-03-14T10:27:12.689Z,28
2024-03-14T10:29:12.682Z,31
2024-03-14T10:31:12.810Z,27
2024-03-14T10:33:13.857Z,26
2024-03-14T10:35:13.073Z,28
2024-03-14T10:37:13.146Z,31
2024-03-14T10:39:13.249Z,20
2024-03-14T10:41:13.468Z,24
2024-03-14T10:43:13.477Z,17
2024-03-14T10:45:13.800Z,15
2024-03-14T10:47:13.682Z,15
2024-03-14T10:49:13.785Z,10
2024-03-14T10:51:13.918Z,16
2024-03-14T10:53:13.950Z,15
2024-03-14T10:55:14.085Z,15
2024-03-14T10:57:14.187Z,15
2024-03-14T10:59:14.366Z,14
2024-03-14T11:01:14.387Z,11
2024-03-14T11:03:14.560Z,11
2024-03-14T11:05:14.645Z,13
2024-03-14T11:07:14.743Z,16
2024-03-14T11:09:14.971Z,10
2024-03-14T11:13:15.067Z,15
2024-03-14T11:15:15.244Z,16
2024-03-14T11:17:15.266Z,10
2024-03-14T11:19:15.365Z,10
2024-03-14T11:21:15.523Z,10
2024-03-14T11:23:15.542Z,16
2024-03-14T11:25:15.693Z,15
2024-03-14T11:27:15.824Z,14
2024-03-14T11:29:16.071Z,15
2024-03-14T11:31:15.976Z,17
2024-03-14T11:33:16.143Z,12
2024-03-14T11:35:16.194Z,12
2024-03-14T11:37:16.261Z,15
2024-03-14T11:39:16.421Z,14
2024-03-14T11:41:16.474Z,13
2024-03-14T11:43:16.638Z,11
2024-03-14T11:45:16.810Z,9
2024-03-14T11:47:16.765Z,11
2024-03-14T11:49:16.830Z,13
2024-03-14T11:51:17.004Z,20
2024-03-14T11:53:17.044Z,17
2024-03-14T11:55:17.165Z,15
2024-03-14T11:57:17.294Z,10
2024-03-14T11:59:17.498Z,20
2024-03-14T12:01:22.457Z,24
2024-03-14T12:03:17.594Z,19
2024-03-14T12:05:17.636Z,14
2024-03-14T12:07:17.808Z,21
2024-03-14T12:09:17.888Z,16
2024-03-14T12:11:17.944Z,15
2024-03-14T12:13:18.106Z,16
2024-03-14T12:15:18.200Z,18
2024-03-14T12:17:18.340Z,22
2024-03-14T12:19:18.336Z,24
2024-03-14T12:21:18.460Z,23
2024-03-14T12:23:18.561Z,21
2024-03-14T12:25:18.813Z,17
2024-03-14T12:27:18.802Z,16
2024-03-14T12:29:18.907Z,15
2024-03-14T12:31:19.095Z,14
2024-03-14T12:33:19.198Z,21
2024-03-14T12:35:19.135Z,30
2024-03-14T12:37:19.267Z,27
2024-03-14T12:39:19.400Z,26
2024-03-14T12:41:19.453Z,27
2024-03-14T12:43:19.570Z,30
2024-03-14T12:45:19.726Z,27
2024-03-14T12:47:19.726Z,28
2024-03-14T12:49:19.825Z,30
2024-03-14T12:51:20.076Z,32
2024-03-14T12:53:20.028Z,29
2024-03-14T12:55:20.112Z,27
2024-03-14T12:57:20.232Z,33
2024-03-14T12:59:24.010Z,28
2024-03-14T13:01:20.450Z,30
2024-03-14T13:03:20.640Z,26
2024-03-14T13:05:20.695Z,27
2024-03-14T13:07:20.694Z,27
2024-03-14T13:09:20.802Z,34
2024-03-14T13:11:20.935Z,35
2024-03-14T13:13:20.981Z,34
2024-03-14T13:15:21.087Z,35
2024-03-14T13:17:21.159Z,29
2024-03-14T13:19:21.419Z,28
2024-03-14T13:21:21.391Z,20
2024-03-14T13:23:21.412Z,17
2024-03-14T13:25:21.521Z,18
2024-03-14T13:27:21.655Z,16
2024-03-14T13:29:21.731Z,21
2024-03-14T13:31:21.874Z,18
2024-03-14T13:33:22.097Z,21
2024-03-14T13:35:22.030Z,33
2024-03-14T13:37:22.118Z,31
2024-03-14T13:39:22.224Z,27
2024-03-14T13:43:24.810Z,23
2024-03-14T13:45:22.540Z,16
2024-03-14T13:47:27.329Z,17
2024-03-14T13:49:22.659Z,22
2024-03-14T13:51:22.843Z,20
2024-03-14T13:55:22.955Z,25
2024-03-14T13:57:23.068Z,22
2024-03-14T13:59:23.112Z,20
2024-03-14T14:01:23.317Z,21
2024-03-14T14:03:23.350Z,21
2024-03-14T14:05:23.365Z,18
2024-03-14T14:07:23.483Z,17
2024-03-14T14:09:23.548Z,17
2024-03-14T14:11:23.672Z,14
2024-03-14T14:13:23.721Z,14
2024-03-14T14:15:23.858Z,13
2024-03-14T14:17:23.950Z,12
2024-03-14T14:19:24.032Z,16
2024-03-14T14:21:25.851Z,13
2024-03-14T14:23:24.204Z,15
2024-03-14T14:25:24.263Z,20
2024-03-14T14:27:24.405Z,23
2024-03-14T14:29:24.440Z,39
2024-03-14T14:31:24.527Z,65
2024-03-14T14:33:26.614Z,42
2024-03-14T14:35:24.711Z,28
2024-03-14T14:37:24.794Z,18
2024-03-14T14:39:24.932Z,17
2024-03-14T14:41:24.998Z,24
2024-03-14T14:43:25.094Z,21
2024-03-14T14:45:25.268Z,24
2024-03-14T14:47:25.269Z,20
2024-03-14T14:49:25.384Z,18
2024-03-14T14:51:25.527Z,18
2024-03-14T14:53:25.556Z,20
2024-03-14T14:55:25.617Z,22
2024-03-14T14:57:25.783Z,21
2024-03-14T14:59:25.863Z,21
2024-03-14T15:01:25.951Z,18
2024-03-14T15:03:25.969Z,21
2024-03-14T15:05:26.080Z,28
2024-03-14T15:07:26.164Z,26
2024-03-14T15:09:26.303Z,20
2024-03-14T15:11:26.394Z,17
2024-03-14T15:13:26.765Z,19
2024-03-14T15:15:26.575Z,21
2024-03-14T15:17:26.560Z,19
2024-03-14T15:19:26.705Z,22
2024-03-14T15:21:26.902Z,24
2024-03-14T15:23:26.857Z,30
2024-03-14T15:25:26.932Z,31
2024-03-14T15:27:27.056Z,34
2024-03-14T15:29:27.176Z,32
2024-03-14T15:31:27.190Z,31
2024-03-14T15:33:27.459Z,30
2024-03-14T15:35:57.425Z,24
2024-03-14T15:37:57.550Z,26
2024-03-14T15:39:57.636Z,26
2024-03-14T15:41:57.788Z,25
2024-03-14T15:43:57.896Z,41
2024-03-14T15:45:58.101Z,41
2024-03-14T15:47:58.180Z,79
2024-03-14T15:49:58.220Z,79
2024-03-14T15:51:58.358Z,49
2024-03-14T15:53:58.489Z,38
2024-03-14T15:55:58.591Z,32
2024-03-14T15:57:58.701Z,36
2024-03-14T15:59:58.834Z,40
2024-03-14T16:01:59.096Z,43
2024-03-14T16:03:59.107Z,45
2024-03-14T16:05:59.362Z,43
2024-03-14T16:07:59.305Z,45
2024-03-14T16:09:59.429Z,48
2024-03-14T16:11:59.792Z,46
2024-03-14T16:13:59.613Z,68
2024-03-14T16:15:59.917Z,58
2024-03-14T16:18:00.052Z,49
2024-03-14T16:19:59.867Z,65
2024-03-14T16:22:00.053Z,59
2024-03-14T16:24:00.166Z,38
2024-03-14T16:26:00.435Z,39
2024-03-14T16:28:00.322Z,42
2024-03-14T16:30:00.605Z,39
2024-03-14T16:32:03.440Z,62
2024-03-14T16:34:00.681Z,37
2024-03-14T16:36:00.938Z,54
2024-03-14T16:38:01.437Z,87
2024-03-14T16:40:01.022Z,63
2024-03-14T16:42:01.183Z,63
2024-03-14T16:44:01.207Z,103
2024-03-14T16:46:01.371Z,99
2024-03-14T16:48:01.481Z,117
2024-03-14T16:50:01.532Z,72
2024-03-14T16:52:01.647Z,48
2024-03-14T16:54:01.780Z,56
2024-03-14T16:56:01.893Z,76
2024-03-14T16:58:01.965Z,57
2024-03-14T17:00:02.125Z,44
2024-03-14T17:02:02.211Z,41
2024-03-14T17:04:02.310Z,41
2024-03-14T17:06:02.451Z,55
2024-03-14T17:08:04.797Z,52
2024-03-14T17:10:02.763Z,76
2024-03-14T17:12:02.764Z,108
2024-03-14T17:14:02.847Z,96
2024-03-14T17:16:02.958Z,61
2024-03-14T17:18:03.198Z,51
2024-03-14T17:20:03.196Z,54
2024-03-14T17:22:03.299Z,52
2024-03-14T17:24:03.494Z,45
2024-03-14T17:26:03.519Z,43
2024-03-14T17:28:03.615Z,44
2024-03-14T17:30:03.799Z,49
2024-03-14T17:32:03.827Z,77
2024-03-14T17:34:04.051Z,94
2024-03-14T17:36:04.126Z,69
2024-03-14T17:38:04.139Z,59
2024-03-14T17:40:04.373Z,51
2024-03-14T17:42:04.483Z,48
2024-03-14T17:44:04.448Z,43
2024-03-14T17:46:04.564Z,42
2024-03-14T17:48:04.770Z,41
2024-03-14T17:50:04.797Z,41
2024-03-14T17:52:04.878Z,37
2024-03-14T17:54:05.019Z,33
2024-03-14T17:56:05.691Z,33
2024-03-14T17:58:05.194Z,26
2024-03-14T18:00:05.376Z,30
2024-03-14T18:02:05.400Z,30
2024-03-14T18:04:05.503Z,31
2024-03-14T18:06:05.638Z,48
2024-03-14T18:08:05.702Z,40
2024-03-14T18:10:05.831Z,37
2024-03-14T18:12:05.986Z,32
2024-03-14T18:14:06.007Z,30
2024-03-14T18:16:06.304Z,27
2024-03-14T18:18:06.273Z,30
2024-03-14T18:20:06.346Z,41
2024-03-14T18:22:06.468Z,47
2024-03-14T18:24:06.579Z,34
2024-03-14T18:26:06.630Z,28
2024-03-14T18:28:06.723Z,24
2024-03-14T18:30:06.922Z,29
2024-03-14T18:32:06.931Z,28
2024-03-14T18:34:07.135Z,26
2024-03-14T18:36:07.205Z,28
2024-03-14T18:38:07.229Z,29
2024-03-14T18:40:07.315Z,35
2024-03-14T18:42:07.479Z,38
2024-03-14T18:44:07.534Z,38
2024-03-14T18:46:07.828Z,37
2024-03-14T18:48:07.849Z,33
2024-03-14T18:50:07.809Z,32
2024-03-14T18:52:07.930Z,30
2024-03-14T18:54:08.051Z,25
2024-03-14T18:56:08.105Z,28
2024-03-14T18:58:08.193Z,32
2024-03-14T19:00:08.684Z,32
2024-03-14T19:02:08.392Z,38
2024-03-14T19:04:08.497Z,40
2024-03-14T19:06:08.612Z,39
2024-03-14T19:08:08.676Z,37
2024-03-14T19:10:08.841Z,43
2024-03-14T19:12:08.897Z,69
2024-03-14T19:14:08.967Z,53
2024-03-14T19:16:09.203Z,49
2024-03-14T19:18:09.255Z,52
2024-03-14T19:20:09.265Z,55
2024-03-14T19:22:09.344Z,50
2024-03-14T19:24:09.538Z,59
2024-03-14T19:26:09.565Z,69
2024-03-14T19:28:09.651Z,67
2024-03-14T19:30:10.161Z,64
2024-03-14T19:32:09.976Z,66
2024-03-14T19:34:10.021Z,83
2024-03-14T19:36:10.652Z,101
2024-03-14T19:38:10.165Z,87
2024-03-14T19:40:10.220Z,77
2024-03-14T19:42:10.383Z,95
2024-03-14T19:44:10.384Z,97
2024-03-14T19:46:10.470Z,152
2024-03-14T19:48:10.632Z,119
2024-03-14T19:50:11.129Z,97
2024-03-14T19:52:10.828Z,93
2024-03-14T19:54:10.875Z,112
2024-03-14T19:56:10.937Z,121
2024-03-14T19:58:11.032Z,109
2024-03-14T20:00:11.270Z,107
2024-03-14T20:02:11.271Z,101
2024-03-14T20:04:11.303Z,95
2024-03-14T20:06:11.426Z,104
2024-03-14T20:08:11.513Z,73
2024-03-14T20:10:11.612Z,83
2024-03-14T20:12:11.836Z,105
2024-03-14T20:14:11.820Z,102
2024-03-14T20:16:11.917Z,92
2024-03-14T20:18:12.002Z,93
2024-03-14T20:20:12.470Z,85
2024-03-14T20:22:12.237Z,82
2024-03-14T20:24:12.392Z,72
2024-03-14T20:26:13.075Z,68
2024-03-14T20:28:12.452Z,74
2024-03-14T20:30:12.575Z,115
2024-03-14T20:32:12.650Z,110
2024-03-14T20:34:12.989Z,97
2024-03-14T20:36:12.930Z,107
2024-03-14T20:38:12.895Z,150
2024-03-14T20:40:13.271Z,104
2024-03-14T20:42:13.178Z,85
2024-03-14T20:44:13.165Z,66
2024-03-14T20:46:13.254Z,69
2024-03-14T20:48:13.452Z,68
2024-03-14T20:50:13.435Z,72
2024-03-14T20:52:13.535Z,66
2024-03-14T20:54:13.694Z,54
2024-03-14T20:56:13.892Z,55
2024-03-14T20:58:14.016Z,53
2024-03-14T21:00:14.112Z,46
2024-03-14T21:02:14.198Z,48
2024-03-14T21:04:14.489Z,52
2024-03-14T21:06:14.304Z,66
2024-03-14T21:08:14.301Z,66
2024-03-14T21:10:14.398Z,54
2024-03-14T21:12:14.505Z,62
2024-03-14T21:14:15.659Z,53
2024-03-14T21:16:15.971Z,58
2024-03-14T21:18:14.913Z,49
2024-03-14T21:20:14.848Z,102
2024-03-14T21:22:14.997Z,148
2024-03-14T21:24:15.087Z,53
2024-03-14T21:26:15.087Z,47
2024-03-14T21:28:15.198Z,100
2024-03-14T21:30:15.314Z,127
2024-03-14T21:32:15.372Z,146
2024-03-14T21:34:15.550Z,112
2024-03-14T21:36:15.543Z,97
2024-03-14T21:38:15.645Z,84
2024-03-14T21:40:15.733Z,61
2024-03-14T21:42:15.916Z,46
2024-03-14T21:44:15.907Z,51
2024-03-14T21:46:16.042Z,56
2024-03-14T21:48:16.256Z,60
2024-03-14T21:50:16.190Z,66
2024-03-14T21:52:16.260Z,71
2024-03-14T21:54:16.375Z,75
2024-03-14T21:56:16.457Z,85
2024-03-14T21:58:16.601Z,81
2024-03-14T22:00:16.789Z,73
2024-03-14T22:02:16.744Z,66
2024-03-14T22:04:16.776Z,60
2024-03-14T22:06:16.923Z,56
2024-03-14T22:08:17.028Z,55
2024-03-14T22:10:17.047Z,52
2024-03-14T22:12:17.158Z,47
2024-03-14T22:14:17.357Z,49
2024-03-14T22:16:17.323Z,45
2024-03-14T22:18:19.675Z,43
2024-03-14T22:20:17.515Z,47
2024-03-14T22:22:17.601Z,53
2024-03-14T22:24:17.754Z,59
2024-03-14T22:26:17.766Z,61
2024-03-14T22:28:17.845Z,65
2024-03-14T22:30:18.020Z,72
2024-03-14T22:32:18.037Z,71
2024-03-14T22:34:18.115Z,53
2024-03-14T22:36:18.221Z,54
2024-03-14T22:38:48.300Z,55
2024-03-14T22:40:48.446Z,51
2024-03-14T22:44:48.705Z,55
2024-03-14T22:46:48.805Z,56
2024-03-14T22:48:48.965Z,46
2024-03-14T22:50:49.088Z,50
2024-03-14T22:52:49.131Z,58
2024-03-14T22:54:49.413Z,62
2024-03-14T22:56:49.328Z,56
2024-03-14T22:58:49.426Z,51
2024-03-14T23:00:49.648Z,47
2024-03-14T23:02:49.654Z,52
2024-03-14T23:04:49.786Z,48
2024-03-14T23:06:49.961Z,59
2024-03-14T23:08:49.994Z,53
2024-03-14T23:10:50.116Z,58
2024-03-14T23:12:50.269Z,64
2024-03-14T23:14:50.407Z,60
2024-03-14T23:16:50.678Z,59
2024-03-14T23:18:50.571Z,52
2024-03-14T23:20:50.671Z,50
2024-03-14T23:22:50.807Z,50
2024-03-14T23:24:50.931Z,46
2024-03-14T23:26:51.037Z,45
2024-03-14T23:28:51.130Z,41
2024-03-14T23:30:51.416Z,39
2024-03-14T23:32:51.416Z,36
2024-03-14T23:34:51.425Z,37
2024-03-14T23:36:51.603Z,39
2024-03-14T23:38:51.703Z,41
2024-03-14T23:40:51.778Z,42
2024-03-14T23:42:51.916Z,41
2024-03-14T23:44:52.009Z,39
2024-03-14T23:46:52.141Z,42
2024-03-14T23:48:52.264Z,49
2024-03-14T23:50:52.407Z,46
2024-03-14T23:52:52.490Z,43
2024-03-14T23:54:52.680Z,44
2024-03-14T23:56:52.737Z,42
2024-03-14T23:58:52.822Z,41
